Back to top

Riverton, WY weather

Riverton Regional Airport, Riverton, WY: 1/20/2020 03:53
Visibility10 statute milesclear sky
View 7-Day Forecast
Area Summary
Sky/CloudsSky Clear
Weather [last 24 hours]None
Pressure30.38 in.Hg (1029 hPa)
Dew Point1.9 °F (-16.7 °C)
Relative Humidity86.8 %
Temperature5 °F (-15 °C)blue thermometer
Wind Chill-6.94 °F (-21.6 °C)
Reading TimeMinimum to Maximum Temperature
6-hr ending 1/19@22:537 °F to 21 °F (-13.9 °C to -6.1 °C)
6-hr ending 1/19@16:5316 °F to 27 °F (-8.9 °C to -2.8 °C)
6-hr ending 1/19@10:531.9 °F to 18 °F (-16.7 °C to -7.8 °C)
6-hr ending 1/19@04:535 °F to 17.1 °F (-15 °C to -8.3 °C)
24-hr ending 1/19@23:531.9 °F to 27 °F (-16.7 °C to -2.8 °C)
Wind6.9 MPH (6 KT) green arrow pointing 292.5 degrees
Wind FromWest/Northwest (290 Degrees)
Twilight Begins07:07Sunshine Yesterday
Sunrise07:38N/A
Sunset17:13
Twilight Ends17:44
METARKRIW 201053Z AUTO 29006KT 10SM CLR M15/M17 A3038 RMK AO2 SLP357 T11501167
Tags: